BAW969H EDDH-EGLL
Flight info
| Callsign | BAW969H |
|---|---|
| Flight time | N/A |
| Altitude | 38000 |
| Route | WSN5G/33 WSN N125 ITMIZ DCT PARYD DCT ABNED L980 LOGAN |
| Aircraft | A319/M-SDE3FGHIRWY/LB1 |
Departure
| Time | 2026-05-06 19:14 |
|---|---|
| Airport | Hamburg Helmut Schmidt Airport (EDDH) |
Arrival
| Time | N/A |
|---|---|
| Airport | London Heathrow Airport (EGLL) |
| Time | Latitude | Longitude | Altitude | Speed | Heading |
|---|---|---|---|---|---|
| 2026-05-06 18:59 | 53.62929 | 10.00274 | 51 ft | 0 kts | 108° |
| 2026-05-06 19:05 | 53.62932 | 10.00254 | 49 ft | 4 kts | 111° |
| 2026-05-06 19:05 | 53.62944 | 10.00214 | 49 ft | 4 kts | 127° |
| 2026-05-06 19:05 | 53.62963 | 10.00184 | 51 ft | 4 kts | 156° |
| 2026-05-06 19:06 | 53.62987 | 10.00178 | 49 ft | 4 kts | 205° |
| 2026-05-06 19:06 | 53.62992 | 10.00182 | 50 ft | 0 kts | 213° |
| 2026-05-06 19:10 | 53.62989 | 10.00179 | 51 ft | 1 kts | 211° |
| 2026-05-06 19:10 | 53.62966 | 10.00154 | 48 ft | 7 kts | 212° |
| 2026-05-06 19:11 | 53.62910 | 10.00095 | 51 ft | 10 kts | 212° |
| 2026-05-06 19:11 | 53.62862 | 10.00017 | 52 ft | 11 kts | 241° |
| 2026-05-06 19:11 | 53.62841 | 9.99953 | 52 ft | 0 kts | 242° |
| 2026-05-06 19:12 | 53.62841 | 9.99952 | 52 ft | 0 kts | 242° |
| 2026-05-06 19:12 | 53.62834 | 9.99930 | 49 ft | 4 kts | 242° |
| 2026-05-06 19:12 | 53.62815 | 9.99870 | 51 ft | 8 kts | 242° |
| 2026-05-06 19:13 | 53.62828 | 9.99774 | 53 ft | 11 kts | 327° |
| 2026-05-06 19:13 | 53.62948 | 9.99669 | 52 ft | 42 kts | 333° |
| 2026-05-06 19:13 | 53.63405 | 9.99278 | 51 ft | 104 kts | 333° |
| 2026-05-06 19:13 | 53.64229 | 9.98569 | 55 ft | 159 kts | 334° |
| 2026-05-06 19:14 | 53.65229 | 9.97712 | 652 ft | 160 kts | 338° |
| 2026-05-06 19:14 | 53.66231 | 9.96870 | 1408 ft | 163 kts | 338° |
| 2026-05-06 19:14 | 53.67307 | 9.95962 | 1855 ft | 184 kts | 338° |
| 2026-05-06 19:14 | 53.68523 | 9.94931 | 2255 ft | 207 kts | 338° |
| 2026-05-06 19:15 | 53.69848 | 9.93797 | 2790 ft | 225 kts | 337° |
| 2026-05-06 19:15 | 53.71077 | 9.92145 | 3793 ft | 232 kts | 306° |
| 2026-05-06 19:15 | 53.71519 | 9.89486 | 4657 ft | 251 kts | 270° |
| 2026-05-06 19:15 | 53.71199 | 9.86402 | 5217 ft | 276 kts | 254° |
| 2026-05-06 19:16 | 53.70581 | 9.83284 | 6277 ft | 282 kts | 250° |
| 2026-05-06 19:16 | 53.69875 | 9.80178 | 7304 ft | 285 kts | 249° |
| 2026-05-06 19:16 | 53.69155 | 9.77039 | 8348 ft | 288 kts | 250° |
| 2026-05-06 19:16 | 53.68452 | 9.73859 | 9332 ft | 293 kts | 251° |
| 2026-05-06 19:17 | 53.67766 | 9.70605 | 9777 ft | 294 kts | 252° |
| 2026-05-06 19:17 | 53.67086 | 9.67258 | 10145 ft | 312 kts | 252° |
| 2026-05-06 19:17 | 53.66371 | 9.63663 | 10508 ft | 333 kts | 252° |
| 2026-05-06 19:17 | 53.65620 | 9.59928 | 11225 ft | 340 kts | 250° |
| 2026-05-06 19:18 | 53.64555 | 9.56356 | 12062 ft | 344 kts | 237° |
| 2026-05-06 19:18 | 53.63182 | 9.53092 | 12922 ft | 346 kts | 234° |
| 2026-05-06 19:18 | 53.61749 | 9.49755 | 13771 ft | 348 kts | 234° |
| 2026-05-06 19:18 | 53.60349 | 9.46494 | 14499 ft | 349 kts | 234° |
| 2026-05-06 19:19 | 53.58920 | 9.43166 | 15237 ft | 351 kts | 234° |
| 2026-05-06 19:19 | 53.57490 | 9.39838 | 15948 ft | 353 kts | 234° |
| 2026-05-06 19:19 | 53.56043 | 9.36482 | 16671 ft | 355 kts | 234° |
| 2026-05-06 19:19 | 53.54580 | 9.33086 | 17361 ft | 359 kts | 234° |
| 2026-05-06 19:20 | 53.53105 | 9.29666 | 17994 ft | 364 kts | 234° |
| 2026-05-06 19:20 | 53.51613 | 9.26213 | 18588 ft | 368 kts | 234° |
| 2026-05-06 19:20 | 53.50103 | 9.22730 | 19187 ft | 371 kts | 234° |
| 2026-05-06 19:20 | 53.48579 | 9.19220 | 19786 ft | 374 kts | 234° |
| 2026-05-06 19:21 | 53.47039 | 9.15672 | 20386 ft | 377 kts | 234° |
| 2026-05-06 19:21 | 53.45489 | 9.12109 | 20996 ft | 380 kts | 234° |
| 2026-05-06 19:21 | 53.43928 | 9.08517 | 21559 ft | 383 kts | 234° |
| 2026-05-06 19:21 | 53.42348 | 9.04888 | 22138 ft | 386 kts | 234° |
| 2026-05-06 19:22 | 53.40756 | 9.01241 | 22703 ft | 389 kts | 234° |
| 2026-05-06 19:22 | 53.39146 | 8.97569 | 23243 ft | 392 kts | 234° |
| 2026-05-06 19:22 | 53.37519 | 8.93864 | 23727 ft | 396 kts | 234° |
| 2026-05-06 19:22 | 53.35888 | 8.90133 | 24185 ft | 398 kts | 236° |
| 2026-05-06 19:23 | 53.34488 | 8.86142 | 24639 ft | 400 kts | 245° |
| 2026-05-06 19:23 | 53.33466 | 8.81809 | 25099 ft | 402 kts | 250° |
| 2026-05-06 19:23 | 53.32507 | 8.77415 | 25577 ft | 404 kts | 250° |
| 2026-05-06 19:23 | 53.31529 | 8.72992 | 26060 ft | 406 kts | 249° |
| 2026-05-06 19:24 | 53.30542 | 8.68560 | 26560 ft | 408 kts | 249° |
| 2026-05-06 19:24 | 53.29546 | 8.64096 | 27049 ft | 410 kts | 249° |
| 2026-05-06 19:24 | 53.28554 | 8.59611 | 27526 ft | 413 kts | 249° |
| 2026-05-06 19:24 | 53.27561 | 8.55097 | 27998 ft | 415 kts | 249° |
| 2026-05-06 19:25 | 53.26565 | 8.50548 | 28450 ft | 418 kts | 249° |
| 2026-05-06 19:25 | 53.25608 | 8.45967 | 28899 ft | 421 kts | 251° |
| 2026-05-06 19:25 | 53.24712 | 8.41294 | 29344 ft | 423 kts | 252° |
| 2026-05-06 19:25 | 53.23846 | 8.36575 | 29775 ft | 426 kts | 252° |
| 2026-05-06 19:26 | 53.22986 | 8.31805 | 30155 ft | 429 kts | 252° |
| 2026-05-06 19:26 | 53.22121 | 8.27036 | 30509 ft | 431 kts | 252° |
| 2026-05-06 19:26 | 53.21235 | 8.22245 | 30868 ft | 433 kts | 252° |
| 2026-05-06 19:26 | 53.20331 | 8.17451 | 31243 ft | 434 kts | 251° |
| 2026-05-06 19:27 | 53.19425 | 8.12721 | 31637 ft | 434 kts | 251° |
| 2026-05-06 19:27 | 53.18506 | 8.07940 | 32145 ft | 432 kts | 251° |
| 2026-05-06 19:27 | 53.17598 | 8.03171 | 32636 ft | 431 kts | 251° |
| 2026-05-06 19:27 | 53.16700 | 7.98416 | 33120 ft | 430 kts | 251° |
| 2026-05-06 19:28 | 53.15805 | 7.93661 | 33611 ft | 429 kts | 251° |
| 2026-05-06 19:28 | 53.14912 | 7.88929 | 34062 ft | 428 kts | 251° |
| 2026-05-06 19:28 | 53.14017 | 7.84210 | 34448 ft | 427 kts | 251° |
| 2026-05-06 19:28 | 53.13118 | 7.79497 | 34823 ft | 427 kts | 251° |
| 2026-05-06 19:29 | 53.12212 | 7.74769 | 35185 ft | 427 kts | 251° |
| 2026-05-06 19:29 | 53.11302 | 7.70058 | 35531 ft | 428 kts | 251° |
| 2026-05-06 19:29 | 53.10393 | 7.65357 | 35877 ft | 428 kts | 251° |
| 2026-05-06 19:29 | 53.09431 | 7.60674 | 36220 ft | 427 kts | 250° |
| 2026-05-06 19:30 | 53.08412 | 7.56022 | 36554 ft | 427 kts | 249° |
| 2026-05-06 19:30 | 53.07366 | 7.51407 | 36882 ft | 427 kts | 248° |
| 2026-05-06 19:30 | 53.06306 | 7.46781 | 37204 ft | 427 kts | 248° |
| 2026-05-06 19:30 | 53.05250 | 7.42168 | 37516 ft | 427 kts | 249° |
| 2026-05-06 19:31 | 53.04197 | 7.37547 | 37814 ft | 428 kts | 248° |
| 2026-05-06 19:31 | 53.00755 | 7.23891 | 37926 ft | 427 kts | 245° |
| 2026-05-06 19:32 | 52.98341 | 7.14875 | 37929 ft | 427 kts | 245° |
| 2026-05-06 19:32 | 52.95942 | 7.05842 | 37926 ft | 427 kts | 246° |
| 2026-05-06 19:33 | 52.93571 | 6.96800 | 37932 ft | 428 kts | 246° |
| 2026-05-06 19:33 | 52.91194 | 6.87747 | 37936 ft | 428 kts | 246° |
| 2026-05-06 19:34 | 52.88801 | 6.78728 | 37946 ft | 428 kts | 246° |
| 2026-05-06 19:34 | 52.86398 | 6.69711 | 37939 ft | 428 kts | 246° |
| 2026-05-06 19:35 | 52.84013 | 6.60788 | 37942 ft | 427 kts | 246° |
| 2026-05-06 19:35 | 52.81601 | 6.51792 | 37931 ft | 428 kts | 246° |
| 2026-05-06 19:36 | 52.79174 | 6.42793 | 37931 ft | 429 kts | 245° |
| 2026-05-06 19:36 | 52.76742 | 6.33788 | 37939 ft | 430 kts | 245° |
| 2026-05-06 19:37 | 52.74298 | 6.24784 | 37947 ft | 430 kts | 245° |
| 2026-05-06 19:37 | 52.72260 | 6.17302 | 37951 ft | 430 kts | 245° |
| 2026-05-06 19:38 | 52.69799 | 6.08303 | 37952 ft | 431 kts | 245° |
| 2026-05-06 19:38 | 52.67336 | 5.99306 | 37959 ft | 430 kts | 245° |
| 2026-05-06 19:39 | 52.64861 | 5.90327 | 37959 ft | 430 kts | 245° |
| 2026-05-06 19:39 | 52.62375 | 5.81355 | 37958 ft | 430 kts | 245° |
| 2026-05-06 19:40 | 52.59886 | 5.72405 | 37941 ft | 430 kts | 245° |
| 2026-05-06 19:40 | 52.57393 | 5.63451 | 37942 ft | 431 kts | 245° |
| 2026-05-06 19:41 | 52.54896 | 5.54509 | 37949 ft | 431 kts | 245° |
| 2026-05-06 19:41 | 52.52392 | 5.45579 | 37958 ft | 431 kts | 245° |
| 2026-05-06 19:42 | 52.49872 | 5.36657 | 37947 ft | 431 kts | 245° |
| 2026-05-06 19:42 | 52.47346 | 5.27749 | 37949 ft | 431 kts | 245° |
| 2026-05-06 19:43 | 52.44822 | 5.18846 | 37947 ft | 430 kts | 245° |
| 2026-05-06 19:43 | 52.42312 | 5.10016 | 37958 ft | 430 kts | 245° |
| 2026-05-06 19:44 | 52.39752 | 5.01084 | 37955 ft | 430 kts | 245° |
| 2026-05-06 19:44 | 52.37217 | 4.92270 | 37966 ft | 431 kts | 245° |
| 2026-05-06 19:45 | 52.34660 | 4.83404 | 37975 ft | 431 kts | 245° |
| 2026-05-06 19:45 | 52.32100 | 4.74564 | 37973 ft | 430 kts | 245° |
| 2026-05-06 19:46 | 52.29530 | 4.65719 | 37958 ft | 431 kts | 245° |
| 2026-05-06 19:46 | 52.26958 | 4.56879 | 37968 ft | 431 kts | 245° |
| 2026-05-06 19:47 | 52.24372 | 4.48055 | 37959 ft | 431 kts | 244° |
| 2026-05-06 19:47 | 52.21775 | 4.39241 | 37973 ft | 431 kts | 244° |
| 2026-05-06 19:48 | 52.19179 | 4.30442 | 37956 ft | 431 kts | 244° |
| 2026-05-06 19:48 | 52.16580 | 4.21632 | 37954 ft | 432 kts | 244° |
| 2026-05-06 19:49 | 52.13962 | 4.12816 | 37965 ft | 432 kts | 244° |
| 2026-05-06 19:49 | 52.11330 | 4.04017 | 37973 ft | 433 kts | 244° |
| 2026-05-06 19:50 | 52.08691 | 3.95211 | 37969 ft | 433 kts | 244° |
| 2026-05-06 19:50 | 52.06052 | 3.86415 | 37988 ft | 432 kts | 244° |
| 2026-05-06 19:51 | 52.03433 | 3.77720 | 37994 ft | 431 kts | 244° |
| 2026-05-06 19:51 | 52.00793 | 3.69002 | 37989 ft | 430 kts | 244° |
| 2026-05-06 19:52 | 51.98158 | 3.60303 | 37968 ft | 429 kts | 244° |
| 2026-05-06 19:52 | 51.95511 | 3.51619 | 37966 ft | 430 kts | 244° |
| 2026-05-06 19:53 | 51.92856 | 3.42938 | 37971 ft | 430 kts | 244° |
| 2026-05-06 19:53 | 51.90186 | 3.34243 | 37976 ft | 430 kts | 244° |
| 2026-05-06 19:54 | 51.87526 | 3.25628 | 37973 ft | 419 kts | 244° |
| 2026-05-06 19:54 | 51.86239 | 3.21456 | 37970 ft | 408 kts | 245° |
| 2026-05-06 19:54 | 51.85229 | 3.17239 | 37981 ft | 398 kts | 254° |
| 2026-05-06 19:55 | 51.84363 | 3.08491 | 37984 ft | 395 kts | 264° |
| 2026-05-06 19:55 | 51.83790 | 2.99554 | 37987 ft | 406 kts | 263° |
| 2026-05-06 19:56 | 51.83173 | 2.90295 | 37988 ft | 421 kts | 264° |
| 2026-05-06 19:56 | 51.82544 | 2.80789 | 37984 ft | 428 kts | 264° |
| 2026-05-06 19:57 | 51.81900 | 2.71200 | 37994 ft | 429 kts | 263° |
| 2026-05-06 19:57 | 51.81572 | 2.66398 | 37749 ft | 431 kts | 263° |
| 2026-05-06 19:57 | 51.81241 | 2.61597 | 37481 ft | 430 kts | 263° |
| 2026-05-06 19:58 | 51.80909 | 2.56809 | 37207 ft | 428 kts | 263° |
| 2026-05-06 19:58 | 51.80582 | 2.52078 | 36949 ft | 428 kts | 263° |
| 2026-05-06 19:58 | 51.80242 | 2.47229 | 36396 ft | 428 kts | 263° |
| 2026-05-06 19:58 | 51.79910 | 2.42522 | 36291 ft | 416 kts | 263° |
| 2026-05-06 19:59 | 51.79265 | 2.33478 | 36100 ft | 396 kts | 263° |
| 2026-05-06 19:59 | 51.78620 | 2.24579 | 35912 ft | 402 kts | 263° |
| 2026-05-06 20:00 | 51.78297 | 2.20063 | 35315 ft | 408 kts | 264° |
| 2026-05-06 20:00 | 51.78006 | 2.15467 | 34557 ft | 415 kts | 264° |
| 2026-05-06 20:00 | 51.77743 | 2.10868 | 33762 ft | 420 kts | 265° |
| 2026-05-06 20:00 | 51.77480 | 2.06075 | 32865 ft | 424 kts | 265° |
| 2026-05-06 20:01 | 51.77224 | 2.01422 | 32692 ft | 408 kts | 265° |
| 2026-05-06 20:01 | 51.76971 | 1.96997 | 32483 ft | 394 kts | 265° |
| 2026-05-06 20:01 | 51.76709 | 1.92550 | 31539 ft | 398 kts | 264° |
| 2026-05-06 20:01 | 51.76438 | 1.88050 | 30070 ft | 418 kts | 264° |
| 2026-05-06 20:02 | 51.76144 | 1.83265 | 28389 ft | 437 kts | 264° |
| 2026-05-06 20:02 | 51.75843 | 1.78412 | 27593 ft | 431 kts | 264° |
| 2026-05-06 20:02 | 51.75547 | 1.73625 | 27167 ft | 429 kts | 264° |
| 2026-05-06 20:02 | 51.75249 | 1.68847 | 26100 ft | 427 kts | 264° |
| 2026-05-06 20:03 | 51.74950 | 1.64117 | 25424 ft | 418 kts | 264° |
| 2026-05-06 20:03 | 51.74655 | 1.59494 | 24772 ft | 413 kts | 264° |
| 2026-05-06 20:03 | 51.74363 | 1.54908 | 24165 ft | 409 kts | 264° |
| 2026-05-06 20:03 | 51.74072 | 1.50363 | 23543 ft | 405 kts | 264° |
| 2026-05-06 20:04 | 51.73781 | 1.45850 | 22881 ft | 401 kts | 264° |
| 2026-05-06 20:04 | 51.73493 | 1.41395 | 22293 ft | 397 kts | 264° |
| 2026-05-06 20:04 | 51.73208 | 1.36998 | 21687 ft | 394 kts | 264° |
| 2026-05-06 20:04 | 51.72923 | 1.32611 | 21109 ft | 391 kts | 264° |
| 2026-05-06 20:05 | 51.72638 | 1.28273 | 20522 ft | 387 kts | 264° |
| 2026-05-06 20:05 | 51.72353 | 1.23956 | 19941 ft | 384 kts | 264° |
| 2026-05-06 20:05 | 51.72068 | 1.19695 | 19370 ft | 382 kts | 264° |
| 2026-05-06 20:05 | 51.71782 | 1.15461 | 18886 ft | 376 kts | 264° |
| 2026-05-06 20:06 | 51.71505 | 1.11374 | 18758 ft | 357 kts | 264° |
| 2026-05-06 20:06 | 51.71239 | 1.07482 | 18496 ft | 342 kts | 264° |
| 2026-05-06 20:06 | 51.70980 | 1.03710 | 17900 ft | 335 kts | 264° |
| 2026-05-06 20:06 | 51.70727 | 0.99998 | 17214 ft | 332 kts | 264° |
| 2026-05-06 20:07 | 51.70478 | 0.96320 | 16524 ft | 329 kts | 264° |
| 2026-05-06 20:07 | 51.70229 | 0.92658 | 15864 ft | 330 kts | 264° |
| 2026-05-06 20:07 | 51.69983 | 0.89075 | 15759 ft | 316 kts | 264° |
| 2026-05-06 20:07 | 51.69737 | 0.85544 | 15993 ft | 314 kts | 264° |